Time;durP1;ratioP1;P1;durP2;ratioP2;P2;SDS_P1;SDS_P2;PMS_P1;PMS_P2;Temp;Humidity;BMP_temperature;BMP_pressure;BME280_temperature;BME280_humidity;BME280_pressure;Samples;Min_cycle;Max_cycle;Signal;HPM_P1;HPM_P2
2021/06/30 00:02:16;;;;;;;;;;;;;;;25.73;59.62;100337.53;4881301;28;96960;-80
2021/06/30 00:04:43;;;;;;;;;;;;;;;25.62;59.39;100345.94;4887641;28;96962;-80
2021/06/30 00:07:10;;;;;;;;;;;;;;;25.64;59.81;100343.09;4883799;28;98979;-80
2021/06/30 00:09:37;;;;;;;;;;;;;;;25.62;59.80;100331.56;4881258;28;98079;-80
2021/06/30 00:12:04;;;;;;;;;;;;;;;25.39;60.10;100331.25;4878106;28;98036;-80
2021/06/30 00:14:30;;;;;;;;;;;;;;;25.30;61.17;100340.31;4874647;28;98021;-81
2021/06/30 00:16:56;;;;;;;;;;;;;;;25.31;61.01;100333.91;4891546;28;97855;-80
2021/06/30 00:19:23;;;;;;;;;;;;;;;25.66;60.08;100328.41;4894537;28;98306;-81
2021/06/30 00:21:49;;;;;;;;;;;;;;;25.66;60.56;100324.84;4889776;28;96913;-79
2021/06/30 00:24:17;;;;;;;;;;;;;;;25.99;59.25;100326.66;4895311;28;96888;-80
2021/06/30 00:26:43;;;;;;;;;;;;;;;25.87;59.83;100321.72;4875479;28;99271;-81
2021/06/30 00:29:09;;;;;;;;;;;;;;;25.92;59.82;100335.63;4888817;28;97791;-81
2021/06/30 00:31:36;;;;;;;;;;;;;;;25.36;60.26;100334.25;4887789;28;96945;-80
2021/06/30 00:34:03;;;;;;;;;;;;;;;25.34;60.90;100328.16;4886241;28;98961;-80
2021/06/30 00:36:34;;;;;;;;;;;;;;;25.31;61.07;100337.44;4892132;28;99718;-80
2021/06/30 00:39:00;;;;;;;;;;;;;;;25.32;61.09;100332.91;4877142;28;99263;-79
2021/06/30 00:41:28;;;;;;;;;;;;;;;25.75;60.08;100340.09;4888675;28;96947;-80
2021/06/30 00:43:54;;;;;;;;;;;;;;;25.26;61.59;100338.94;4899527;28;97133;-80
2021/06/30 00:46:24;;;;;;;;;;;;;;;25.31;61.41;100336.59;4891449;28;100275;-80
2021/06/30 00:48:50;;;;;;;;;;;;;;;25.80;60.06;100335.88;4893161;28;98845;-80
2021/06/30 00:51:17;;;;;;;;;;;;;;;25.72;60.33;100333.16;4917898;28;96549;-81
2021/06/30 00:53:43;;;;;;;;;;;;;;;25.62;60.82;100343.25;4920114;28;96097;-81
2021/06/30 00:56:09;;;;;;;;;;;;;;;25.34;61.54;100338.97;4923770;28;97915;-80
2021/06/30 00:58:37;;;;;;;;;;;;;;;25.38;62.42;100337.66;4907742;28;98827;-80
2021/06/30 01:01:03;;;;;;;;;;;;;;;25.60;60.81;100341.72;4918504;28;96748;-80
2021/06/30 01:03:30;;;;;;;;;;;;;;;25.73;60.66;100337.53;4905633;28;97506;-81
2021/06/30 01:05:56;;;;;;;;;;;;;;;25.96;59.39;100340.53;4906373;28;98348;-80
2021/06/30 01:08:22;;;;;;;;;;;;;;;25.98;59.05;100335.81;4903238;28;98859;-80
2021/06/30 01:10:49;;;;;;;;;;;;;;;26.02;59.10;100339.03;4906457;28;98682;-80
2021/06/30 01:13:16;;;;;;;;;;;;;;;25.98;59.04;100351.22;4902510;28;98106;-80
2021/06/30 01:15:49;;;;;;;;;;;;;;;25.66;59.83;100346.50;4907700;28;100422;-80
2021/06/30 01:18:15;;;;;;;;;;;;;;;25.86;60.04;100345.25;4902972;28;97798;-81
2021/06/30 01:20:41;;;;;;;;;;;;;;;25.79;60.36;100336.06;4905918;28;97069;-80
2021/06/30 01:23:10;;;;;;;;;;;;;;;25.93;60.03;100337.31;4898900;28;96972;-79
2021/06/30 01:25:37;;;;;;;;;;;;;;;25.93;59.39;100337.31;4902722;28;97863;-80
2021/06/30 01:28:03;;;;;;;;;;;;;;;25.81;60.18;100339.44;4911116;28;99312;-79
2021/06/30 01:30:30;;;;;;;;;;;;;;;25.66;60.57;100333.81;4903039;28;97271;-81
2021/06/30 01:32:56;;;;;;;;;;;;;;;25.86;61.06;100333.56;4900371;28;98646;-81
2021/06/30 01:35:23;;;;;;;;;;;;;;;25.66;61.36;100333.81;4902276;28;99279;-81
2021/06/30 01:37:49;;;;;;;;;;;;;;;25.74;61.10;100333.84;4899641;28;98886;-81
2021/06/30 01:40:18;;;;;;;;;;;;;;;25.88;60.64;100324.25;4903387;28;97569;-82
2021/06/30 01:42:45;;;;;;;;;;;;;;;26.15;60.01;100324.03;4903431;28;97104;-81
2021/06/30 01:45:11;;;;;;;;;;;;;;;25.69;60.99;100314.53;4906959;28;99013;-81
2021/06/30 01:47:38;;;;;;;;;;;;;;;25.55;61.53;100307.00;4900442;28;99324;-81
2021/06/30 01:50:04;;;;;;;;;;;;;;;25.49;62.09;100306.78;4900665;28;97187;-81
2021/06/30 01:52:31;;;;;;;;;;;;;;;24.98;63.64;100303.06;4888234;28;97234;-81
2021/06/30 01:54:57;;;;;;;;;;;;;;;25.26;63.71;100296.53;4890825;28;98967;-81
2021/06/30 01:57:25;;;;;;;;;;;;;;;25.31;63.79;100287.94;4901615;28;98132;-81
2021/06/30 01:59:51;;;;;;;;;;;;;;;24.83;63.68;100282.97;4898145;28;97179;-80
2021/06/30 02:02:20;;;;;;;;;;;;;;;25.11;63.34;100281.88;4894054;28;96648;-81
2021/06/30 02:04:54;;;;;;;;;;;;;;;25.25;63.48;100280.47;4882053;28;99018;-81
2021/06/30 02:07:20;;;;;;;;;;;;;;;25.39;62.85;100283.44;4877160;28;101418;-81
2021/06/30 02:09:46;;;;;;;;;;;;;;;25.45;62.48;100276.53;4881100;28;98995;-81
2021/06/30 02:12:13;;;;;;;;;;;;;;;25.41;62.56;100280.53;4885572;28;97531;-81
2021/06/30 02:14:40;;;;;;;;;;;;;;;25.33;62.67;100285.91;4877232;28;99047;-81
2021/06/30 02:17:06;;;;;;;;;;;;;;;25.33;62.70;100278.66;4869197;28;101771;-80
2021/06/30 02:19:33;;;;;;;;;;;;;;;25.56;61.66;100281.63;4884103;28;96882;-80
2021/06/30 02:21:59;;;;;;;;;;;;;;;25.20;62.25;100285.50;4872399;28;97378;-81
2021/06/30 02:24:25;;;;;;;;;;;;;;;25.27;62.21;100281.97;4889490;28;98913;-81
2021/06/30 02:26:52;;;;;;;;;;;;;;;25.38;62.12;100272.75;4883847;28;97723;-80
2021/06/30 02:29:24;;;;;;;;;;;;;;;25.26;62.39;100269.50;4882082;28;98633;-83
2021/06/30 02:31:52;;;;;;;;;;;;;;;25.28;62.83;100253.06;4880894;28;97584;-82
2021/06/30 02:34:19;;;;;;;;;;;;;;;25.34;62.40;100257.84;4880078;28;98332;-81
2021/06/30 02:36:51;;;;;;;;;;;;;;;25.33;62.45;100253.47;4882140;28;98259;-82
2021/06/30 02:39:17;;;;;;;;;;;;;;;24.90;63.32;100257.91;4891894;28;97303;-81
2021/06/30 02:41:44;;;;;;;;;;;;;;;24.84;63.91;100254.97;4880951;28;98130;-81
2021/06/30 02:44:11;;;;;;;;;;;;;;;24.85;64.42;100249.41;4882864;28;97880;-81
2021/06/30 02:46:38;;;;;;;;;;;;;;;24.79;63.81;100250.03;4885106;28;97486;-84
2021/06/30 02:49:06;;;;;;;;;;;;;;;24.71;64.21;100252.66;4897263;28;97201;-82
2021/06/30 02:51:33;;;;;;;;;;;;;;;24.86;63.56;100264.63;4916322;28;97032;-84
2021/06/30 02:54:00;;;;;;;;;;;;;;;25.20;62.12;100261.16;4914874;28;99353;-82
2021/06/30 02:56:27;;;;;;;;;;;;;;;25.24;62.65;100273.34;4901980;28;97805;-84
2021/06/30 02:58:54;;;;;;;;;;;;;;;25.43;61.60;100281.22;4902898;28;96826;-79
2021/06/30 03:01:20;;;;;;;;;;;;;;;25.46;61.37;100293.59;4915926;28;98628;-81
2021/06/30 03:03:46;;;;;;;;;;;;;;;25.32;61.20;100295.03;4906846;28;97911;-80
2021/06/30 03:06:17;;;;;;;;;;;;;;;24.45;63.91;100293.13;4910395;28;101312;-83
2021/06/30 03:08:44;;;;;;;;;;;;;;;24.49;63.90;100291.81;4897514;28;97049;-82
2021/06/30 03:11:12;;;;;;;;;;;;;;;24.88;63.11;100292.31;4902073;28;96932;-82
2021/06/30 03:13:38;;;;;;;;;;;;;;;24.93;63.02;100297.31;4902672;28;101366;-83
2021/06/30 03:16:05;;;;;;;;;;;;;;;24.73;63.43;100299.31;4912475;28;100079;-80
2021/06/30 03:18:31;;;;;;;;;;;;;;;24.96;62.60;100303.22;4903783;28;96802;-81
2021/06/30 03:20:57;;;;;;;;;;;;;;;25.37;61.65;100300.81;4910588;28;97314;-81
2021/06/30 03:23:25;;;;;;;;;;;;;;;24.76;63.33;100309.78;4919917;28;98136;-80
2021/06/30 03:25:51;;;;;;;;;;;;;;;25.24;61.46;100309.34;4912870;28;99042;-80
2021/06/30 03:28:17;;;;;;;;;;;;;;;25.06;62.11;100307.69;4904257;28;96895;-81
2021/06/30 03:30:44;;;;;;;;;;;;;;;25.13;62.52;100308.78;4903774;28;97516;-81
2021/06/30 03:33:11;;;;;;;;;;;;;;;25.31;61.55;100307.72;4900895;28;99404;-80
2021/06/30 03:35:37;;;;;;;;;;;;;;;25.07;62.81;100304.84;4908351;28;99083;-80
2021/06/30 03:38:04;;;;;;;;;;;;;;;24.72;63.23;100304.84;4902798;28;96874;-80
2021/06/30 03:40:32;;;;;;;;;;;;;;;24.42;64.24;100301.53;4900174;28;96967;-81
2021/06/30 03:42:58;;;;;;;;;;;;;;;24.36;63.81;100298.59;4898194;28;99171;-81
2021/06/30 03:45:24;;;;;;;;;;;;;;;24.45;64.09;100297.69;4910353;28;98843;-79
2021/06/30 03:47:51;;;;;;;;;;;;;;;24.69;63.44;100306.00;4900061;28;96693;-81
2021/06/30 03:50:17;;;;;;;;;;;;;;;24.94;61.71;100307.94;4913920;28;97663;-81
2021/06/30 03:52:43;;;;;;;;;;;;;;;24.55;63.08;100326.31;4911829;28;99348;-81
2021/06/30 03:55:09;;;;;;;;;;;;;;;24.94;62.89;100324.16;4900826;28;98852;-80
2021/06/30 03:57:37;;;;;;;;;;;;;;;25.18;61.81;100336.16;4905807;28;96848;-81
2021/06/30 04:00:04;;;;;;;;;;;;;;;25.09;61.70;100329.00;4907276;28;96929;-80
2021/06/30 04:02:31;;;;;;;;;;;;;;;25.24;62.05;100330.13;4921187;28;97833;-80
2021/06/30 04:04:57;;;;;;;;;;;;;;;24.97;61.98;100318.44;4919291;28;98348;-80
2021/06/30 04:07:24;;;;;;;;;;;;;;;25.37;61.36;100314.31;4926452;28;96325;-81
2021/06/30 04:09:50;;;;;;;;;;;;;;;25.46;60.78;100315.25;4922744;28;97378;-81
2021/06/30 04:12:16;;;;;;;;;;;;;;;25.44;61.07;100311.84;4921606;28;97684;-81
2021/06/30 04:14:44;;;;;;;;;;;;;;;24.97;61.56;100313.03;4915893;28;97743;-81
2021/06/30 04:17:11;;;;;;;;;;;;;;;24.85;61.92;100313.41;4914401;28;96863;-81
2021/06/30 04:19:37;;;;;;;;;;;;;;;25.13;61.46;100316.88;4904943;28;96930;-81
2021/06/30 04:22:04;;;;;;;;;;;;;;;25.26;61.05;100314.59;4905415;28;99395;-80
2021/06/30 04:24:30;;;;;;;;;;;;;;;25.32;60.90;100312.13;4902017;28;97498;-81
2021/06/30 04:26:56;;;;;;;;;;;;;;;25.32;61.24;100324.78;4904563;28;96945;-80
2021/06/30 04:29:22;;;;;;;;;;;;;;;25.18;60.61;100328.91;4903000;28;96963;-81
2021/06/30 04:31:50;;;;;;;;;;;;;;;25.30;61.60;100329.50;4910366;28;98977;-81
2021/06/30 04:34:16;;;;;;;;;;;;;;;25.21;61.64;100335.84;4905622;28;98836;-80
2021/06/30 04:36:43;;;;;;;;;;;;;;;25.55;60.63;100338.59;4904873;28;96845;-80
2021/06/30 04:39:10;;;;;;;;;;;;;;;25.29;61.02;100346.72;4904140;28;96931;-80
2021/06/30 04:41:36;;;;;;;;;;;;;;;24.85;62.88;100343.13;4911389;28;98984;-81
2021/06/30 04:44:03;;;;;;;;;;;;;;;24.30;64.72;100351.34;4925667;28;101699;-81
2021/06/30 04:46:29;;;;;;;;;;;;;;;24.02;65.88;100352.38;4917936;28;96461;-81
2021/06/30 04:48:57;;;;;;;;;;;;;;;24.15;66.20;100342.91;4912705;28;96876;-81
2021/06/30 04:51:24;;;;;;;;;;;;;;;23.74;67.38;100327.22;4892186;28;99342;-80
2021/06/30 04:53:51;;;;;;;;;;;;;;;23.41;68.83;100315.94;4882878;28;98890;-80
2021/06/30 04:56:26;;;;;;;;;;;;;;;23.86;67.30;100317.06;4881752;28;97431;-81
2021/06/30 04:58:52;;;;;;;;;;;;;;;;;;4885397;28;97371;-81
2021/06/30 05:01:18;;;;;;;;;;;;;;;24.34;66.22;100309.56;4884507;28;101464;-80
2021/06/30 05:03:45;;;;;;;;;;;;;;;24.55;65.14;100309.25;4879623;28;99017;-81
2021/06/30 05:06:13;;;;;;;;;;;;;;;24.50;65.24;100311.56;4891703;28;97019;-81
2021/06/30 05:08:39;;;;;;;;;;;;;;;24.50;64.50;100325.06;4894104;28;96847;-81
2021/06/30 05:11:05;;;;;;;;;;;;;;;24.76;63.31;100311.63;4880974;28;99799;-80
2021/06/30 05:13:32;;;;;;;;;;;;;;;24.58;63.92;100307.09;4893156;28;99227;-82
2021/06/30 05:15:58;;;;;;;;;;;;;;;24.84;62.98;100311.72;4883089;28;96877;-81
2021/06/30 05:18:24;;;;;;;;;;;;;;;25.05;62.33;100311.41;4889625;28;97089;-81
2021/06/30 05:20:51;;;;;;;;;;;;;;;24.91;62.42;100312.81;4870658;28;98571;-84
2021/06/30 05:23:41;;;;;;;;;;;;;;;24.58;62.91;100311.66;4879735;28;99496;-82
2021/06/30 05:26:09;;;;;;;;;;;;;;;24.54;62.66;100311.13;4880074;28;96925;-81
2021/06/30 05:28:35;;;;;;;;;;;;;;;24.27;63.71;100313.03;4893270;28;96821;-81
2021/06/30 05:31:01;;;;;;;;;;;;;;;24.41;63.55;100313.34;4893003;28;98875;-82
2021/06/30 05:33:28;;;;;;;;;;;;;;;24.57;63.13;100310.81;4884441;28;98106;-80
2021/06/30 05:35:55;;;;;;;;;;;;;;;24.50;62.96;100316.97;4884495;28;96779;-80
2021/06/30 05:38:21;;;;;;;;;;;;;;;24.41;63.05;100312.50;4887134;28;98306;-81
2021/06/30 05:40:47;;;;;;;;;;;;;;;24.71;63.04;100311.25;4877437;28;98092;-81
2021/06/30 05:43:15;;;;;;;;;;;;;;;24.87;62.00;100309.56;4889747;28;98887;-81
2021/06/30 05:45:42;;;;;;;;;;;;;;;24.82;61.94;100308.31;4885140;28;97036;-80
2021/06/30 05:48:08;;;;;;;;;;;;;;;24.85;61.81;100311.56;4891161;28;96996;-80
2021/06/30 05:50:35;;;;;;;;;;;;;;;24.81;62.13;100306.63;4897271;28;98340;-80
2021/06/30 05:53:02;;;;;;;;;;;;;;;24.86;61.73;100304.31;4909237;28;97740;-80
2021/06/30 05:55:29;;;;;;;;;;;;;;;24.67;61.73;100308.03;4909318;28;97622;-81
2021/06/30 05:57:55;;;;;;;;;;;;;;;25.02;61.42;100316.13;4916856;28;96511;-79
2021/06/30 06:00:23;;;;;;;;;;;;;;;24.74;61.73;100325.31;4922259;28;99590;-79
2021/06/30 06:02:50;;;;;;;;;;;;;;;24.54;62.63;100318.38;4925135;28;96892;-78
2021/06/30 06:05:17;;;;;;;;;;;;;;;24.46;62.36;100315.59;4914385;28;96927;-79
2021/06/30 06:07:46;;;;;;;;;;;;;;;24.88;61.80;100313.09;4908876;28;96862;-78
2021/06/30 06:10:13;;;;;;;;;;;;;;;24.38;62.50;100302.00;4910278;28;97513;-79
2021/06/30 06:12:40;;;;;;;;;;;;;;;24.73;62.25;100304.72;4905862;28;97559;-79
2021/06/30 06:15:07;;;;;;;;;;;;;;;24.70;62.13;100313.09;4911361;28;99000;-78
2021/06/30 06:17:35;;;;;;;;;;;;;;;24.76;61.83;100319.75;4901360;28;99043;-79
2021/06/30 06:20:04;;;;;;;;;;;;;;;24.77;62.10;100322.28;4903156;28;99075;-78
2021/06/30 06:22:30;;;;;;;;;;;;;;;24.54;62.00;100321.94;4915155;28;98097;-78
2021/06/30 06:24:59;;;;;;;;;;;;;;;24.73;62.73;100323.63;4908967;28;96894;-82
2021/06/30 06:27:25;;;;;;;;;;;;;;;24.45;63.37;100327.38;4901221;28;97946;-79
2021/06/30 06:29:54;;;;;;;;;;;;;;;24.37;63.87;100335.41;4905824;28;98885;-79
2021/06/30 06:32:20;;;;;;;;;;;;;;;24.56;63.36;100335.25;4912858;28;98992;-78
2021/06/30 06:34:48;;;;;;;;;;;;;;;24.55;63.33;100338.97;4913397;28;96787;-79
2021/06/30 06:37:15;;;;;;;;;;;;;;;24.68;62.78;100341.31;4914172;28;96883;-78
2021/06/30 06:39:44;;;;;;;;;;;;;;;24.55;63.15;100344.34;4906233;28;101678;-79
2021/06/30 06:42:11;;;;;;;;;;;;;;;24.81;62.25;100339.06;4912412;28;97847;-79
2021/06/30 06:44:40;;;;;;;;;;;;;;;24.42;63.04;100344.75;4909277;28;96833;-79
2021/06/30 06:49:49;;;;;;;;;;;;;;;24.44;63.03;100342.75;4911011;28;97488;-79
2021/06/30 06:52:15;;;;;;;;;;;;;;;24.39;63.40;100352.31;4919199;28;99584;-79
2021/06/30 06:54:42;;;;;;;;;;;;;;;24.60;63.08;100352.88;4913859;28;96875;-79
2021/06/30 06:57:08;;;;;;;;;;;;;;;24.62;62.45;100350.84;4917721;28;96894;-80
2021/06/30 06:59:37;;;;;;;;;;;;;;;24.41;63.14;100356.56;4917063;28;98216;-79
2021/06/30 07:02:04;;;;;;;;;;;;;;;24.34;63.16;100347.38;4920447;28;97666;-81
2021/06/30 07:04:30;;;;;;;;;;;;;;;24.35;63.77;100353.63;4909891;28;96855;-78
2021/06/30 07:06:58;;;;;;;;;;;;;;;24.31;63.36;100352.22;4922829;28;97675;-79
2021/06/30 07:09:25;;;;;;;;;;;;;;;24.14;63.51;100351.16;4897829;28;100202;-80
2021/06/30 07:11:51;;;;;;;;;;;;;;;24.35;63.38;100348.22;4908928;28;99103;-77
2021/06/30 07:14:17;;;;;;;;;;;;;;;24.53;62.88;100344.53;4920853;28;97250;-80
2021/06/30 07:16:44;;;;;;;;;;;;;;;24.71;62.51;100349.94;4915181;28;96711;-79
2021/06/30 07:19:10;;;;;;;;;;;;;;;24.54;62.45;100353.50;4909773;28;97779;-79
2021/06/30 07:21:36;;;;;;;;;;;;;;;24.56;62.55;100343.34;4909792;28;99177;-79
2021/06/30 07:24:06;;;;;;;;;;;;;;;24.56;62.49;100351.47;4905628;28;96825;-79
2021/06/30 07:26:33;;;;;;;;;;;;;;;24.82;61.66;100355.09;4912655;28;96804;-82
2021/06/30 07:28:59;;;;;;;;;;;;;;;24.54;62.75;100348.94;4903210;28;99670;-81
2021/06/30 07:31:25;;;;;;;;;;;;;;;24.58;62.74;100354.88;4913072;28;99252;-80
2021/06/30 07:33:52;;;;;;;;;;;;;;;24.49;63.50;100348.53;4900247;28;97092;-79
2021/06/30 07:36:18;;;;;;;;;;;;;;;24.29;63.48;100360.47;4900135;28;96848;-81
2021/06/30 07:38:46;;;;;;;;;;;;;;;24.57;62.93;100354.03;4898776;28;99014;-80
2021/06/30 07:41:13;;;;;;;;;;;;;;;24.57;63.27;100351.31;4900453;28;98948;-80
2021/06/30 07:43:39;;;;;;;;;;;;;;;24.78;62.56;100350.16;4899758;28;96814;-79
2021/06/30 07:46:06;;;;;;;;;;;;;;;24.73;62.64;100353.34;4899917;28;96985;-79
2021/06/30 07:48:32;;;;;;;;;;;;;;;24.60;62.82;100352.88;4900294;28;98890;-80
2021/06/30 07:50:58;;;;;;;;;;;;;;;24.68;62.56;100350.22;4892049;28;98096;-82
2021/06/30 07:53:25;;;;;;;;;;;;;;;24.46;62.85;100350.69;4881530;28;96789;-80
2021/06/30 07:55:51;;;;;;;;;;;;;;;24.59;62.59;100352.03;4887859;28;96835;-81
2021/06/30 07:58:23;;;;;;;;;;;;;;;24.50;62.75;100357.47;4898606;28;99464;-82
2021/06/30 08:01:00;;;;;;;;;;;;;;;24.70;61.98;100353.63;4900955;28;97768;-83
2021/06/30 08:03:27;;;;;;;;;;;;;;;24.51;62.44;100351.94;4886860;28;97116;-82
2021/06/30 08:05:53;;;;;;;;;;;;;;;24.67;61.97;100361.22;4893584;28;96903;-81
2021/06/30 08:08:20;;;;;;;;;;;;;;;24.51;62.78;100349.22;4890634;28;100691;-80
2021/06/30 08:10:46;;;;;;;;;;;;;;;24.49;62.85;100353.06;4884757;28;98961;-80
2021/06/30 08:13:13;;;;;;;;;;;;;;;24.31;63.37;100363.00;4887223;28;97132;-80
2021/06/30 08:15:40;;;;;;;;;;;;;;;24.73;61.74;100358.75;4890533;28;96955;-79
2021/06/30 08:18:07;;;;;;;;;;;;;;;24.69;62.28;100359.19;4892764;28;98950;-80
2021/06/30 08:20:33;;;;;;;;;;;;;;;24.63;62.31;100363.34;4885608;28;98802;-81
2021/06/30 08:22:59;;;;;;;;;;;;;;;24.44;62.49;100358.09;4887969;28;97160;-81
2021/06/30 08:25:25;;;;;;;;;;;;;;;24.55;62.01;100365.97;4885792;28;97230;-81
2021/06/30 08:27:53;;;;;;;;;;;;;;;24.55;62.15;100382.16;4900245;28;98068;-80
2021/06/30 08:30:20;;;;;;;;;;;;;;;24.65;61.46;100377.56;4900835;28;100221;-79
2021/06/30 08:32:48;;;;;;;;;;;;;;;24.60;61.94;100374.47;4898481;28;96617;-82
2021/06/30 08:35:15;;;;;;;;;;;;;;;24.66;60.93;100373.03;4907396;28;96621;-80
2021/06/30 08:37:44;;;;;;;;;;;;;;;24.52;61.49;100379.78;4900413;28;98196;-80
2021/06/30 08:40:11;;;;;;;;;;;;;;;24.63;60.78;100374.16;4896463;28;99334;-80
2021/06/30 08:42:37;;;;;;;;;;;;;;;24.71;61.20;100386.91;4890084;28;97285;-80
2021/06/30 08:45:04;;;;;;;;;;;;;;;24.75;61.44;100381.03;4885890;28;96994;-81
2021/06/30 08:47:33;;;;;;;;;;;;;;;24.79;61.41;100385.16;4894097;28;99187;-81
2021/06/30 08:50:00;;;;;;;;;;;;;;;24.70;61.99;100393.31;4900679;28;97699;-81
2021/06/30 08:52:27;;;;;;;;;;;;;;;24.81;61.90;100393.09;4910961;28;96982;-80
2021/06/30 08:54:54;;;;;;;;;;;;;;;24.65;62.28;100382.97;4908222;28;97494;-81
2021/06/30 08:57:22;;;;;;;;;;;;;;;24.95;61.10;100389.88;4908642;28;98331;-79
2021/06/30 08:59:48;;;;;;;;;;;;;;;24.74;61.44;100376.66;4912707;28;99109;-80
2021/06/30 09:02:15;;;;;;;;;;;;;;;25.13;60.55;100376.34;4904342;28;96749;-81
2021/06/30 09:04:43;;;;;;;;;;;;;;;25.30;59.61;100372.75;4908607;28;96877;-81
2021/06/30 09:07:10;;;;;;;;;;;;;;;25.24;60.27;100384.22;4917139;28;98093;-81
2021/06/30 09:09:40;;;;;;;;;;;;;;;24.77;61.13;100386.28;4919939;28;98925;-80
2021/06/30 09:12:07;;;;;;;;;;;;;;;25.12;60.30;100391.72;4912073;28;97214;-79
2021/06/30 09:14:36;;;;;;;;;;;;;;;24.89;61.20;100390.44;4918337;28;96827;-80
2021/06/30 09:17:10;;;;;;;;;;;;;;;24.94;61.29;100399.00;4915680;28;99048;-80
2021/06/30 09:19:46;;;;;;;;;;;;;;;24.92;61.22;100406.41;4913970;28;97011;-79
2021/06/30 09:22:14;;;;;;;;;;;;;;;24.89;61.21;100406.66;4909960;28;97965;-80
2021/06/30 09:24:40;;;;;;;;;;;;;;;25.15;60.07;100412.16;4908687;28;98051;-80
2021/06/30 09:27:09;;;;;;;;;;;;;;;24.97;60.17;100409.50;4908855;28;96866;-79
2021/06/30 09:29:38;;;;;;;;;;;;;;;25.00;60.55;100399.22;4913639;28;99757;-81
2021/06/30 09:32:08;;;;;;;;;;;;;;;25.09;60.83;100391.16;4907325;28;96839;-80
2021/06/30 09:34:34;;;;;;;;;;;;;;;25.14;60.44;100386.16;4901321;28;96824;-81
2021/06/30 09:37:01;;;;;;;;;;;;;;;25.07;60.48;100387.78;4907039;28;97660;-81
2021/06/30 09:39:30;;;;;;;;;;;;;;;24.69;61.34;100387.06;4911215;28;99005;-79
2021/06/30 09:42:02;;;;;;;;;;;;;;;24.35;62.51;100377.94;4905854;28;96783;-81
2021/06/30 09:44:28;;;;;;;;;;;;;;;24.37;62.60;100370.50;4908049;28;96847;-80
2021/06/30 09:46:55;;;;;;;;;;;;;;;24.53;61.69;100371.53;4908389;28;99284;-80
2021/06/30 09:49:23;;;;;;;;;;;;;;;24.67;61.27;100363.91;4911083;28;99198;-80
2021/06/30 09:52:04;;;;;;;;;;;;;;;24.62;61.38;100365.22;4907924;28;96806;-79
2021/06/30 09:54:33;;;;;;;;;;;;;;;24.69;61.22;100378.94;4905759;28;96764;-80
2021/06/30 09:57:01;;;;;;;;;;;;;;;24.86;60.74;100383.53;4899196;28;99180;-80
2021/06/30 09:59:30;;;;;;;;;;;;;;;24.48;62.34;100391.91;4909224;28;98913;-79
2021/06/30 10:01:58;;;;;;;;;;;;;;;24.68;62.02;100388.06;4907763;28;97152;-79
2021/06/30 10:04:32;;;;;;;;;;;;;;;24.46;62.81;100383.09;4902394;28;96941;-80
2021/06/30 10:06:59;;;;;;;;;;;;;;;24.63;62.15;100374.16;4907572;28;98847;-80
2021/06/30 10:09:26;;;;;;;;;;;;;;;24.66;62.56;100365.75;4907022;28;98991;-80
2021/06/30 10:11:58;;;;;;;;;;;;;;;24.78;61.72;100359.13;4911163;28;96842;-80
2021/06/30 10:14:24;;;;;;;;;;;;;;;24.92;61.36;100363.16;4907157;28;97213;-79
2021/06/30 10:19:31;;;;;;;;;;;;;;;24.99;60.96;100353.44;4913414;28;98553;-81
2021/06/30 10:21:58;;;;;;;;;;;;;;;24.91;61.29;100348.81;4918267;28;96924;-80
2021/06/30 10:24:25;;;;;;;;;;;;;;;25.11;60.00;100340.50;4916968;28;97154;-80
2021/06/30 10:26:52;;;;;;;;;;;;;;;25.05;59.80;100342.00;4918217;28;99183;-80
2021/06/30 10:29:23;;;;;;;;;;;;;;;25.15;60.08;100344.59;4917369;28;97716;-79
2021/06/30 10:31:49;;;;;;;;;;;;;;;25.05;60.25;100346.53;4915247;28;96778;-79
2021/06/30 10:34:16;;;;;;;;;;;;;;;24.68;60.98;100344.00;4921270;28;96756;-79
2021/06/30 10:36:44;;;;;;;;;;;;;;;24.47;61.53;100330.78;4922436;28;98903;-79
2021/06/30 10:39:11;;;;;;;;;;;;;;;24.69;61.38;100329.47;4925489;28;97808;-79
2021/06/30 10:41:38;;;;;;;;;;;;;;;24.63;61.90;100322.84;4928243;28;96644;-80
2021/06/30 10:44:08;;;;;;;;;;;;;;;24.51;61.73;100326.78;4913732;28;97131;-81
2021/06/30 10:46:35;;;;;;;;;;;;;;;23.99;63.31;100337.31;4914587;28;97809;-80
2021/06/30 10:49:21;;;;;;;;;;;;;;;24.80;61.46;100343.63;4903232;28;97865;-79
2021/06/30 10:51:48;;;;;;;;;;;;;;;24.04;62.25;100345.78;4905864;28;96916;-80
2021/06/30 10:54:33;;;;;;;;;;;;;;;24.08;62.75;100351.75;4909588;28;97289;-79
2021/06/30 10:57:18;;;;;;;;;;;;;;;24.27;62.24;100348.13;4906792;28;99057;-81
2021/06/30 11:00:05;;;;;;;;;;;;;;;24.19;62.78;100349.72;4912726;28;99218;-79
2021/06/30 11:02:33;;;;;;;;;;;;;;;24.27;62.23;100334.63;4919701;28;96902;-79
2021/06/30 11:05:14;;;;;;;;;;;;;;;23.76;63.05;100338.72;4919325;28;96617;-79
2021/06/30 11:07:41;;;;;;;;;;;;;;;24.20;62.24;100347.88;4921581;28;97868;-80
2021/06/30 11:10:23;;;;;;;;;;;;;;;24.57;61.01;100358.56;4910603;28;98333;-80
2021/06/30 11:12:52;;;;;;;;;;;;;;;24.29;61.90;100351.50;4902294;28;96775;-79
2021/06/30 11:15:34;;;;;;;;;;;;;;;24.29;62.01;100352.34;4904675;28;96924;-80
2021/06/30 11:18:05;;;;;;;;;;;;;;;24.55;61.45;100349.75;4903361;28;99260;-82
2021/06/30 11:20:44;;;;;;;;;;;;;;;24.50;61.66;100352.06;4913470;28;96818;-80
2021/06/30 11:23:20;;;;;;;;;;;;;;;24.72;60.70;100350.78;4911305;28;97409;-81
2021/06/30 11:25:46;;;;;;;;;;;;;;;24.42;61.37;100365.50;4912377;28;96807;-81
2021/06/30 11:28:27;;;;;;;;;;;;;;;24.87;59.97;100362.75;4911653;28;99037;-80
2021/06/30 11:30:54;;;;;;;;;;;;;;;24.61;60.60;100352.69;4905502;28;98970;-81
2021/06/30 11:33:21;;;;;;;;;;;;;;;24.80;60.01;100365.22;4906421;28;97104;-81
2021/06/30 11:35:48;;;;;;;;;;;;;;;24.69;60.18;100362.75;4905878;28;97127;-80
2021/06/30 11:38:19;;;;;;;;;;;;;;;24.37;60.87;100373.19;4903723;28;99332;-80
2021/06/30 11:43:31;;;;;;;;;;;;;;;24.26;61.85;100389.63;4905949;28;97265;-81
2021/06/30 11:45:59;;;;;;;;;;;;;;;24.39;61.74;100385.56;4914860;28;96794;-80
2021/06/30 11:48:28;;;;;;;;;;;;;;;24.48;61.47;100392.75;4909679;28;97879;-81
2021/06/30 11:50:55;;;;;;;;;;;;;;;24.44;61.36;100395.91;4916055;28;99275;-81
2021/06/30 11:53:46;;;;;;;;;;;;;;;24.45;61.09;100400.31;4913893;28;96918;-79
2021/06/30 11:56:14;;;;;;;;;;;;;;;23.97;62.78;100395.97;4898296;28;97155;-79
2021/06/30 11:58:41;;;;;;;;;;;;;;;24.00;62.02;100395.69;4911167;28;97874;-80
2021/06/30 12:01:15;;;;;;;;;;;;;;;24.01;62.31;100400.09;4913337;28;98008;-81
2021/06/30 12:03:43;;;;;;;;;;;;;;;23.90;62.81;100400.25;4918507;28;97055;-81
2021/06/30 12:06:20;;;;;;;;;;;;;;;24.52;61.07;100396.84;4914707;28;96777;-80
2021/06/30 12:09:03;;;;;;;;;;;;;;;24.31;61.87;100387.31;4913594;28;98404;-82
2021/06/30 12:11:30;;;;;;;;;;;;;;;23.91;63.18;100382.22;4902346;28;102317;-81
2021/06/30 12:14:04;;;;;;;;;;;;;;;24.19;62.31;100382.13;4901462;28;96769;-80
2021/06/30 12:16:41;;;;;;;;;;;;;;;23.90;62.77;100370.56;4899279;28;96769;-81
2021/06/30 12:19:12;;;;;;;;;;;;;;;24.18;62.51;100361.50;4907208;28;99440;-81
2021/06/30 12:21:39;;;;;;;;;;;;;;;24.20;62.64;100367.63;4897267;28;98787;-81
2021/06/30 12:24:12;;;;;;;;;;;;;;;24.12;62.73;100364.78;4907101;28;97256;-80
2021/06/30 12:26:54;;;;;;;;;;;;;;;24.07;63.11;100361.72;4908047;28;96783;-80
2021/06/30 12:29:20;;;;;;;;;;;;;;;24.02;62.80;100372.09;4907278;28;98154;-81
2021/06/30 12:31:47;;;;;;;;;;;;;;;23.93;63.29;100356.81;4909698;28;98796;-79
2021/06/30 12:34:14;;;;;;;;;;;;;;;23.89;62.59;100366.19;4908443;28;96863;-80
2021/06/30 12:36:42;;;;;;;;;;;;;;;24.39;61.76;100363.09;4905554;28;96844;-80
2021/06/30 12:39:17;;;;;;;;;;;;;;;24.12;62.24;100363.94;4907739;28;98124;-80
2021/06/30 12:41:49;;;;;;;;;;;;;;;23.74;63.09;100364.97;4912262;28;97706;-81
2021/06/30 12:44:15;;;;;;;;;;;;;;;23.63;63.59;100363.28;4914497;28;96834;-79
2021/06/30 12:46:42;;;;;;;;;;;;;;;24.04;62.77;100370.09;4914725;28;96860;-80
2021/06/30 12:49:14;;;;;;;;;;;;;;;23.95;62.69;100365.59;4916944;28;96905;-80
2021/06/30 12:51:40;;;;;;;;;;;;;;;23.94;63.17;100368.44;4931674;28;97793;-80